Photometre #714[NE_1.6] Minsk AOT

File : 20200925_714.hum

25/09/2020,05:02:50,TEMP=11.2,BA=5.64,STAT.A=4.5,ExtBa=14.22
25/09/2020,05:06:21,TEMP=11.5,BA=5.64,STAT.D=4.5,ExtBa=14.14
25/09/2020,05:08:17,TEMP=11.9,BA=5.64,STAT.A=4.5,ExtBa=13.94
25/09/2020,05:12:21,TEMP=11.8,BA=5.64,STAT.D=4.5,ExtBa=13.91
25/09/2020,05:14:18,TEMP=12.3,BA=5.64,STAT.A=4.5,ExtBa=13.83
25/09/2020,05:18:21,TEMP=12.2,BA=5.64,STAT.D=4.5,ExtBa=13.96
25/09/2020,05:20:17,TEMP=12.7,BA=5.64,STAT.A=4.5,ExtBa=13.92
25/09/2020,05:24:21,TEMP=12.6,BA=5.64,STAT.D=4.5,ExtBa=14.02
25/09/2020,05:26:23,TEMP=13.0,BA=5.64,STAT.A=4.5,ExtBa=13.87
25/09/2020,05:30:21,TEMP=13.0,BA=5.64,STAT.D=4.5,ExtBa=13.92
25/09/2020,05:33:21,TEMP=13.2,BA=5.64,STAT.D=4.5,ExtBa=13.96
25/09/2020,05:35:37,TEMP=13.6,BA=5.64,STAT.A=4.5,ExtBa=13.84
25/09/2020,05:39:21,TEMP=13.6,BA=5.64,STAT.D=4.5,ExtBa=13.89
25/09/2020,05:42:21,TEMP=13.9,BA=5.60,STAT.D=4.5,ExtBa=13.80
25/09/2020,05:45:21,TEMP=14.2,BA=5.60,STAT.D=4.5,ExtBa=13.82
25/09/2020,05:47:33,TEMP=14.5,BA=5.60,STAT.B=4.5,ExtBa=13.79
25/09/2020,05:56:55,TEMP=14.8,BA=5.60,STAT.A=4.5,ExtBa=13.14
25/09/2020,05:59:47,TEMP=14.9,BA=5.60,STAT.A=4.5,ExtBa=13.42
25/09/2020,06:03:21,TEMP=15.0,BA=5.60,STAT.D=5.0,ExtBa=13.65
25/09/2020,06:06:21,TEMP=15.3,BA=5.60,STAT.D=5.0,ExtBa=13.77
25/09/2020,06:08:16,TEMP=15.6,BA=5.60,STAT.A=4.5,ExtBa=13.75
25/09/2020,06:12:21,TEMP=15.5,BA=5.64,STAT.D=5.0,ExtBa=13.93
25/09/2020,06:15:21,TEMP=15.9,BA=5.64,STAT.D=5.0,ExtBa=13.93
25/09/2020,06:17:17,TEMP=16.3,BA=5.64,STAT.A=5.0,ExtBa=13.88
25/09/2020,06:21:22,TEMP=16.2,BA=5.64,STAT.D=5.0,ExtBa=13.99
25/09/2020,06:24:22,TEMP=16.4,BA=5.64,STAT.D=5.0,ExtBa=13.96
25/09/2020,06:26:18,TEMP=16.7,BA=5.64,STAT.C=5.0,ExtBa=13.90
25/09/2020,06:40:28,TEMP=17.3,BA=5.60,STAT.A=5.0,ExtBa=13.12
25/09/2020,06:45:22,TEMP=17.3,BA=5.60,STAT.D=5.0,ExtBa=13.64
25/09/2020,06:48:22,TEMP=17.5,BA=5.60,STAT.D=5.0,ExtBa=13.80
25/09/2020,06:51:16,TEMP=17.6,BA=5.64,STAT.A=5.0,ExtBa=13.86
25/09/2020,06:54:22,TEMP=17.8,BA=5.64,STAT.D=5.0,ExtBa=13.92
25/09/2020,06:57:22,TEMP=18.0,BA=5.64,STAT.D=5.0,ExtBa=13.95
25/09/2020,07:00:22,TEMP=18.2,BA=5.64,STAT.D=5.0,ExtBa=13.93
25/09/2020,07:02:17,TEMP=18.5,BA=5.64,STAT.F,ExtBa=13.88
25/09/2020,07:16:45,TEMP=18.8,BA=5.56,STAT.D=5.0,ExtBa=13.07
25/09/2020,07:24:22,TEMP=19.1,BA=5.60,STAT.D=5.0,ExtBa=13.90
25/09/2020,07:27:22,TEMP=19.5,BA=5.60,STAT.D=5.0,ExtBa=13.90
25/09/2020,07:30:22,TEMP=19.7,BA=5.64,STAT.D=5.0,ExtBa=13.94
25/09/2020,07:32:19,TEMP=20.0,BA=5.64,STAT.D=5.0,ExtBa=13.88
25/09/2020,07:36:22,TEMP=19.9,BA=5.64,STAT.D=5.0,ExtBa=13.97
25/09/2020,07:39:22,TEMP=20.0,BA=5.64,STAT.D=5.0,ExtBa=13.97
25/09/2020,07:42:22,TEMP=19.9,BA=5.60,STAT.D=5.0,ExtBa=13.95
25/09/2020,07:45:22,TEMP=19.8,BA=5.60,STAT.D=5.0,ExtBa=13.94
25/09/2020,07:47:16,TEMP=20.1,BA=5.60,STAT.D=5.0,ExtBa=13.90
25/09/2020,07:51:22,TEMP=19.9,BA=5.64,STAT.D=5.0,ExtBa=14.01
25/09/2020,07:54:22,TEMP=20.1,BA=5.64,STAT.D=5.0,ExtBa=14.00
25/09/2020,07:57:22,TEMP=20.1,BA=5.64,STAT.D=5.0,ExtBa=13.97
25/09/2020,08:00:22,TEMP=20.1,BA=5.64,STAT.D=5.0,ExtBa=13.93
25/09/2020,08:02:17,TEMP=20.4,BA=5.64,STAT.F,ExtBa=13.88
25/09/2020,08:16:37,TEMP=20.8,BA=5.48,STAT.D=5.5,ExtBa=13.06
25/09/2020,08:21:22,TEMP=21.0,BA=5.64,STAT.D=5.5,ExtBa=13.68
25/09/2020,08:24:22,TEMP=21.3,BA=5.64,STAT.D=5.5,ExtBa=13.76
25/09/2020,08:27:22,TEMP=21.5,BA=5.64,STAT.D=5.5,ExtBa=13.88
25/09/2020,08:30:22,TEMP=21.6,BA=5.64,STAT.D=5.5,ExtBa=13.91
25/09/2020,08:32:15,TEMP=21.9,BA=5.64,STAT.D=5.0,ExtBa=13.84
25/09/2020,08:36:22,TEMP=21.6,BA=5.64,STAT.D=5.5,ExtBa=13.95
25/09/2020,08:39:22,TEMP=21.8,BA=5.64,STAT.D=5.5,ExtBa=13.96
25/09/2020,08:42:22,TEMP=22.0,BA=5.56,STAT.D=5.5,ExtBa=13.98
25/09/2020,08:45:22,TEMP=22.2,BA=5.56,STAT.D=5.5,ExtBa=13.98
25/09/2020,08:47:15,TEMP=22.5,BA=5.56,STAT.D=5.5,ExtBa=13.92
25/09/2020,08:51:22,TEMP=22.2,BA=5.64,STAT.D=5.5,ExtBa=14.01
25/09/2020,08:54:22,TEMP=22.4,BA=5.64,STAT.D=5.5,ExtBa=13.99
25/09/2020,08:57:22,TEMP=22.5,BA=5.64,STAT.D=5.5,ExtBa=13.99
25/09/2020,09:00:22,TEMP=22.6,BA=5.64,STAT.D=5.5,ExtBa=13.99
25/09/2020,09:02:17,TEMP=23.0,BA=5.64,STAT.F,ExtBa=13.88
25/09/2020,09:16:37,TEMP=23.4,BA=5.44,STAT.D=5.5,ExtBa=13.06
25/09/2020,09:21:22,TEMP=23.6,BA=5.60,STAT.D=5.5,ExtBa=13.70
25/09/2020,09:24:22,TEMP=23.8,BA=5.60,STAT.D=5.5,ExtBa=13.81
25/09/2020,09:27:22,TEMP=23.9,BA=5.60,STAT.D=5.5,ExtBa=13.90
25/09/2020,09:30:22,TEMP=23.9,BA=5.60,STAT.D=5.5,ExtBa=13.94
25/09/2020,09:32:16,TEMP=24.1,BA=5.60,STAT.D=5.5,ExtBa=13.88
25/09/2020,09:36:22,TEMP=23.7,BA=5.60,STAT.D=5.5,ExtBa=13.99
25/09/2020,09:39:22,TEMP=23.8,BA=5.60,STAT.D=5.5,ExtBa=13.98
25/09/2020,09:42:22,TEMP=23.8,BA=5.48,STAT.D=5.5,ExtBa=13.98
25/09/2020,09:45:22,TEMP=23.9,BA=5.48,STAT.D=5.5,ExtBa=13.97
25/09/2020,09:47:15,TEMP=24.2,BA=5.48,STAT.D=5.5,ExtBa=13.89
25/09/2020,09:51:22,TEMP=23.9,BA=5.60,STAT.D=5.5,ExtBa=14.01
25/09/2020,09:54:22,TEMP=24.0,BA=5.60,STAT.D=5.5,ExtBa=13.99
25/09/2020,09:57:22,TEMP=24.1,BA=5.60,STAT.D=5.5,ExtBa=13.98
25/09/2020,10:00:22,TEMP=24.2,BA=5.60,STAT.D=5.5,ExtBa=13.98
25/09/2020,10:02:17,TEMP=24.5,BA=5.60,STAT.F,ExtBa=13.91
25/09/2020,10:16:53,TEMP=24.3,BA=5.44,STAT.D=5.5,ExtBa=12.97
25/09/2020,10:21:22,TEMP=24.2,BA=5.60,STAT.D=5.5,ExtBa=13.58
25/09/2020,10:24:22,TEMP=24.4,BA=5.60,STAT.D=5.5,ExtBa=13.76
25/09/2020,10:27:22,TEMP=24.6,BA=5.60,STAT.D=5.5,ExtBa=13.86
25/09/2020,10:30:22,TEMP=24.7,BA=5.60,STAT.D=5.5,ExtBa=13.91
25/09/2020,10:32:15,TEMP=24.8,BA=5.60,STAT.D=5.5,ExtBa=13.87
25/09/2020,10:36:22,TEMP=24.7,BA=5.60,STAT.D=5.5,ExtBa=13.97
25/09/2020,10:39:22,TEMP=24.8,BA=5.60,STAT.D=5.5,ExtBa=13.97
25/09/2020,10:42:22,TEMP=24.9,BA=5.44,STAT.D=5.5,ExtBa=13.97
25/09/2020,10:45:22,TEMP=24.9,BA=5.44,STAT.D=5.5,ExtBa=13.96
25/09/2020,10:47:15,TEMP=25.2,BA=5.44,STAT.D=5.5,ExtBa=13.89
25/09/2020,10:51:22,TEMP=25.1,BA=5.60,STAT.D=5.5,ExtBa=13.98
25/09/2020,10:54:22,TEMP=25.4,BA=5.60,STAT.D=5.5,ExtBa=13.97
25/09/2020,10:57:22,TEMP=25.5,BA=5.60,STAT.D=5.5,ExtBa=13.96
25/09/2020,11:00:22,TEMP=25.8,BA=5.60,STAT.D=5.5,ExtBa=13.97
25/09/2020,11:02:21,TEMP=26.0,BA=5.60,STAT.F,ExtBa=13.87
25/09/2020,11:16:37,TEMP=25.5,BA=5.44,STAT.D=5.5,ExtBa=13.05
25/09/2020,11:21:22,TEMP=25.3,BA=5.60,STAT.D=5.5,ExtBa=13.71
25/09/2020,11:24:22,TEMP=25.7,BA=5.60,STAT.D=5.5,ExtBa=13.83
25/09/2020,11:27:22,TEMP=25.8,BA=5.60,STAT.D=5.5,ExtBa=13.86
25/09/2020,11:30:22,TEMP=25.7,BA=5.60,STAT.D=5.5,ExtBa=13.89
25/09/2020,11:32:16,TEMP=25.9,BA=5.60,STAT.D=5.5,ExtBa=13.83
25/09/2020,11:36:22,TEMP=25.5,BA=5.60,STAT.D=5.5,ExtBa=13.96
25/09/2020,11:39:22,TEMP=25.6,BA=5.60,STAT.D=5.5,ExtBa=13.94
25/09/2020,11:42:22,TEMP=25.7,BA=5.44,STAT.D=5.5,ExtBa=13.92
25/09/2020,11:45:22,TEMP=25.8,BA=5.44,STAT.D=5.5,ExtBa=13.92
25/09/2020,11:47:16,TEMP=26.1,BA=5.44,STAT.D=5.5,ExtBa=13.84
25/09/2020,11:51:22,TEMP=26.1,BA=5.60,STAT.D=5.5,ExtBa=13.94
25/09/2020,11:54:22,TEMP=26.3,BA=5.60,STAT.D=5.5,ExtBa=13.90
25/09/2020,11:57:22,TEMP=26.4,BA=5.60,STAT.D=5.5,ExtBa=13.87
25/09/2020,12:00:22,TEMP=26.4,BA=5.60,STAT.D=5.5,ExtBa=13.92
25/09/2020,12:02:18,TEMP=26.6,BA=5.60,STAT.F,ExtBa=13.86
25/09/2020,12:16:37,TEMP=26.1,BA=5.40,STAT.D=5.5,ExtBa=12.98
25/09/2020,12:21:22,TEMP=26.2,BA=5.60,STAT.D=6.0,ExtBa=13.66
25/09/2020,12:24:22,TEMP=26.5,BA=5.60,STAT.D=5.5,ExtBa=13.75
25/09/2020,12:27:22,TEMP=26.6,BA=5.60,STAT.D=5.5,ExtBa=13.85
25/09/2020,12:30:22,TEMP=26.5,BA=5.60,STAT.D=5.5,ExtBa=13.89
25/09/2020,12:32:16,TEMP=26.6,BA=5.60,STAT.D=5.5,ExtBa=13.82
25/09/2020,12:36:22,TEMP=26.2,BA=5.60,STAT.D=6.0,ExtBa=13.93
25/09/2020,12:39:22,TEMP=26.2,BA=5.60,STAT.D=5.5,ExtBa=13.93
25/09/2020,12:42:22,TEMP=26.3,BA=5.44,STAT.D=5.5,ExtBa=13.91
25/09/2020,12:45:22,TEMP=26.3,BA=5.44,STAT.D=5.5,ExtBa=13.93
25/09/2020,12:47:16,TEMP=26.4,BA=5.44,STAT.D=5.5,ExtBa=13.84
25/09/2020,12:51:22,TEMP=26.0,BA=5.60,STAT.D=5.5,ExtBa=13.95
25/09/2020,12:54:22,TEMP=26.0,BA=5.60,STAT.D=5.5,ExtBa=13.89
25/09/2020,12:57:22,TEMP=25.9,BA=5.60,STAT.D=5.5,ExtBa=13.86
25/09/2020,13:00:22,TEMP=25.8,BA=5.60,STAT.D=5.5,ExtBa=13.88
25/09/2020,13:02:16,TEMP=25.9,BA=5.60,STAT.F,ExtBa=13.83
25/09/2020,13:16:41,TEMP=25.6,BA=5.40,STAT.A=5.5,ExtBa=12.95
25/09/2020,13:21:22,TEMP=25.5,BA=5.60,STAT.D=5.5,ExtBa=13.63
25/09/2020,13:24:22,TEMP=25.7,BA=5.60,STAT.D=5.5,ExtBa=13.72
25/09/2020,13:26:17,TEMP=25.9,BA=5.60,STAT.A=5.5,ExtBa=13.71
25/09/2020,13:30:22,TEMP=25.6,BA=5.60,STAT.D=5.5,ExtBa=13.91
25/09/2020,13:33:22,TEMP=25.7,BA=5.60,STAT.D=5.5,ExtBa=13.87
25/09/2020,13:36:22,TEMP=25.6,BA=5.60,STAT.D=5.5,ExtBa=13.90
25/09/2020,13:38:17,TEMP=25.8,BA=5.60,STAT.C=5.5,ExtBa=13.84
25/09/2020,13:52:43,TEMP=25.3,BA=5.40,STAT.A=5.5,ExtBa=12.95
25/09/2020,13:56:06,TEMP=25.2,BA=5.40,STAT.A=5.5,ExtBa=13.45
25/09/2020,14:00:21,TEMP=25.2,BA=5.60,STAT.D=5.5,ExtBa=13.81
25/09/2020,14:03:21,TEMP=25.2,BA=5.60,STAT.D=5.5,ExtBa=13.86
25/09/2020,14:05:17,TEMP=25.4,BA=5.60,STAT.A=5.5,ExtBa=13.79
25/09/2020,14:09:21,TEMP=25.1,BA=5.60,STAT.D=5.5,ExtBa=13.93
25/09/2020,14:11:24,TEMP=25.2,BA=5.44,STAT.A=5.5,ExtBa=13.79
25/09/2020,14:15:21,TEMP=24.9,BA=5.44,STAT.D=5.5,ExtBa=13.86
25/09/2020,14:17:26,TEMP=25.1,BA=5.44,STAT.B=5.5,ExtBa=13.73
25/09/2020,14:27:21,TEMP=24.5,BA=5.40,STAT.D=5.5,ExtBa=13.10
25/09/2020,14:29:16,TEMP=24.6,BA=5.40,STAT.A=5.5,ExtBa=13.31
25/09/2020,14:33:21,TEMP=24.3,BA=5.40,STAT.D=5.5,ExtBa=13.67
25/09/2020,14:36:21,TEMP=24.4,BA=5.40,STAT.D=5.5,ExtBa=13.77
25/09/2020,14:38:16,TEMP=24.5,BA=5.40,STAT.A=5.5,ExtBa=13.77
25/09/2020,14:42:21,TEMP=24.2,BA=5.44,STAT.D=5.5,ExtBa=13.82
25/09/2020,14:44:33,TEMP=24.3,BA=5.44,STAT.A=5.5,ExtBa=13.73
25/09/2020,14:48:21,TEMP=24.0,BA=5.44,STAT.D=5.5,ExtBa=13.84
25/09/2020,14:50:46,TEMP=24.1,BA=5.44,STAT.A=5.5,ExtBa=13.76
25/09/2020,14:54:21,TEMP=23.8,BA=5.44,STAT.D=5.5,ExtBa=13.83
25/09/2020,14:56:17,TEMP=24.0,BA=5.44,STAT.A=5.5,ExtBa=13.81
25/09/2020,15:00:21,TEMP=23.6,BA=5.60,STAT.D=5.5,ExtBa=13.93
25/09/2020,15:02:17,TEMP=23.7,BA=5.60,STAT.A=5.5,ExtBa=13.86